Time;durP1;ratioP1;P1;durP2;ratioP2;P2;SDS_P1;SDS_P2;PMS_P1;PMS_P2;Temp;Humidity;BMP_temperature;BMP_pressure;BME280_temperature;BME280_humidity;BME280_pressure;Samples;Min_cycle;Max_cycle;Signal;HPM_P1;HPM_P2
2021/03/18 00:00:48;;;;;;;11.43;1.38;;;3.10;82.60;;;;;;5062516;28;20068;-72
2021/03/18 00:03:18;;;;;;;12.27;1.15;;;3.10;82.70;;;;;;5062141;28;20013;-72
2021/03/18 00:05:44;;;;;;;14.95;1.52;;;3.10;82.70;;;;;;5061765;28;20012;-72
2021/03/18 00:08:10;;;;;;;11.95;1.65;;;3.10;82.40;;;;;;5061618;28;20041;-71
2021/03/18 00:10:36;;;;;;;9.98;1.25;;;3.10;82.60;;;;;;5045134;28;20082;-71
2021/03/18 00:13:03;;;;;;;7.65;1.00;;;3.10;82.10;;;;;;5061748;28;20017;-71
2021/03/18 00:15:29;;;;;;;11.75;1.10;;;3.10;81.80;;;;;;5061613;28;20088;-72
2021/03/18 00:17:55;;;;;;;10.65;1.15;;;3.10;81.20;;;;;;5061552;28;20147;-71
2021/03/18 00:20:21;;;;;;;19.98;1.40;;;3.10;80.80;;;;;;5061739;28;20088;-71
2021/03/18 00:22:47;;;;;;;6.85;0.85;;;3.00;80.50;;;;;;5045971;28;20021;-71
2021/03/18 00:25:13;;;;;;;6.32;1.25;;;3.10;80.60;;;;;;5062430;28;20017;-71
2021/03/18 00:27:40;;;;;;;9.15;0.93;;;3.00;80.50;;;;;;5063284;28;20021;-71
2021/03/18 00:30:06;;;;;;;5.85;1.10;;;3.00;80.70;;;;;;5045949;28;20045;-71
2021/03/18 00:32:32;;;;;;;7.40;1.05;;;3.00;80.90;;;;;;5059790;28;20017;-71
2021/03/18 00:34:58;;;;;;;6.32;1.17;;;3.00;81.10;;;;;;5061930;28;20024;-71
2021/03/18 00:37:23;;;;;;;6.93;1.02;;;3.00;81.30;;;;;;5061814;28;20005;-71
2021/03/18 00:39:49;;;;;;;17.17;2.08;;;3.00;81.40;;;;;;5061377;28;20020;-72
2021/03/18 00:42:15;;;;;;;7.28;1.35;;;3.00;81.40;;;;;;5061698;28;20013;-71
2021/03/18 00:44:40;;;;;;;7.25;0.90;;;3.00;81.40;;;;;;5044716;28;20074;-72
2021/03/18 00:47:06;;;;;;;4.53;1.00;;;3.00;81.30;;;;;;5064130;28;20021;-71
2021/03/18 00:49:32;;;;;;;8.82;1.13;;;3.00;81.20;;;;;;5049193;28;20013;-71
2021/03/18 00:51:57;;;;;;;11.20;1.02;;;3.00;81.30;;;;;;5064804;28;20025;-72
2021/03/18 00:54:23;;;;;;;10.50;1.20;;;3.00;81.20;;;;;;5064858;28;20033;-72
2021/03/18 00:56:48;;;;;;;9.23;1.20;;;3.00;81.10;;;;;;5064830;28;20032;-71
2021/03/18 00:59:14;;;;;;;11.25;1.40;;;3.00;81.10;;;;;;5036821;28;20032;-71
2021/03/18 01:01:40;;;;;;;8.05;1.38;;;3.00;81.20;;;;;;5054169;28;20025;-71
2021/03/18 01:04:05;;;;;;;11.70;2.20;;;2.90;81.20;;;;;;5065233;28;20008;-71
2021/03/18 01:06:31;;;;;;;9.45;1.77;;;2.90;81.30;;;;;;5048563;28;20037;-71
2021/03/18 01:08:58;;;;;;;9.35;0.85;;;2.90;81.30;;;;;;5065442;28;20009;-71
2021/03/18 01:11:33;;;;;;;8.00;1.15;;;2.90;81.40;;;;;;5065538;28;20009;-71
2021/03/18 01:14:00;;;;;;;8.57;1.13;;;3.00;81.60;;;;;;5070336;28;20005;-71
2021/03/18 01:16:32;;;;;;;6.03;0.90;;;2.90;81.60;;;;;;5055311;28;20022;-71
2021/03/18 01:19:00;;;;;;;7.30;1.38;;;2.90;81.70;;;;;;5057279;28;20029;-72
2021/03/18 01:21:28;;;;;;;10.30;1.27;;;2.90;81.60;;;;;;5063862;28;20025;-72
2021/03/18 01:23:53;;;;;;;8.18;1.15;;;2.90;81.90;;;;;;5076272;28;20016;-71
2021/03/18 01:26:19;;;;;;;4.60;0.98;;;2.90;82.00;;;;;;5070646;28;20083;-72
2021/03/18 01:28:45;;;;;;;14.07;1.10;;;2.90;82.10;;;;;;5070054;28;20009;-72
2021/03/18 01:31:10;;;;;;;6.40;0.90;;;2.90;82.20;;;;;;5075270;28;20028;-72
2021/03/18 01:33:37;;;;;;;10.85;2.35;;;2.90;82.30;;;;;;5057422;28;20039;-72
2021/03/18 01:36:04;;;;;;;12.32;1.25;;;2.80;82.40;;;;;;5052297;28;20005;-72
2021/03/18 01:38:30;;;;;;;9.25;1.38;;;2.90;82.50;;;;;;5058728;28;20085;-72
2021/03/18 01:40:56;;;;;;;9.80;1.35;;;2.90;82.40;;;;;;5071254;28;20021;-72
2021/03/18 01:43:22;;;;;;;11.30;1.30;;;2.90;82.50;;;;;;5056500;28;20101;-72
2021/03/18 01:45:48;;;;;;;7.72;1.20;;;2.90;82.50;;;;;;5070589;28;20029;-72
2021/03/18 01:48:14;;;;;;;11.55;1.20;;;2.80;82.40;;;;;;5075247;28;20020;-72
2021/03/18 01:50:40;;;;;;;13.85;1.50;;;2.80;82.60;;;;;;5069157;28;20024;-72
2021/03/18 01:53:06;;;;;;;13.02;1.17;;;2.80;82.70;;;;;;5067134;28;20378;-72
2021/03/18 01:55:37;;;;;;;7.68;1.48;;;2.90;82.80;;;;;;5067757;28;20067;-72
2021/03/18 01:58:03;;;;;;;13.80;1.48;;;2.90;82.80;;;;;;5048001;28;20258;-72
2021/03/18 02:00:28;;;;;;;6.07;1.35;;;2.80;82.90;;;;;;5069774;28;20013;-72
2021/03/18 02:02:55;;;;;;;9.25;1.35;;;2.80;83.00;;;;;;5067533;28;20202;-72
2021/03/18 02:05:21;;;;;;;6.88;1.73;;;2.90;83.10;;;;;;5047142;28;20187;-71
2021/03/18 02:07:49;;;;;;;11.93;1.15;;;2.90;83.00;;;;;;5048621;28;20116;-72
2021/03/18 02:10:15;;;;;;;13.90;1.33;;;2.90;82.80;;;;;;5067504;28;20016;-71
2021/03/18 02:12:40;;;;;;;10.23;1.30;;;2.90;82.70;;;;;;5067055;28;20021;-71
2021/03/18 02:15:07;;;;;;;8.73;1.05;;;2.90;83.00;;;;;;5066306;28;20033;-72
2021/03/18 02:18:00;;;;;;;5.38;1.38;;;2.90;83.10;;;;;;5065491;28;20017;-72
2021/03/18 02:20:35;;;;;;;6.72;0.98;;;2.90;82.80;;;;;;5048627;28;20035;-72
2021/03/18 02:23:29;;;;;;;8.15;1.23;;;2.90;83.00;;;;;;5057113;28;20436;-71
2021/03/18 02:26:26;;;;;;;10.60;1.55;;;3.00;82.90;;;;;;5053461;28;20024;-71
2021/03/18 02:29:02;;;;;;;9.88;1.00;;;3.00;82.80;;;;;;5064180;28;20012;-72
2021/03/18 02:31:41;;;;;;;13.25;1.52;;;3.10;82.90;;;;;;5062735;28;20008;-72
2021/03/18 02:34:44;;;;;;;9.52;1.35;;;3.10;83.00;;;;;;5064154;28;20005;-72
2021/03/18 02:37:12;;;;;;;16.83;1.17;;;3.10;83.00;;;;;;5064107;28;20206;-71
2021/03/18 02:39:42;;;;;;;6.22;1.20;;;3.10;83.00;;;;;;5062965;28;20001;-71
2021/03/18 02:42:11;;;;;;;14.63;1.30;;;3.20;83.00;;;;;;5062698;28;20096;-72
2021/03/18 02:44:39;;;;;;;8.02;1.05;;;3.10;83.00;;;;;;5062486;28;20019;-72
2021/03/18 02:47:11;;;;;;;13.65;2.05;;;3.10;83.00;;;;;;5062768;28;20013;-72
2021/03/18 02:49:42;;;;;;;10.40;1.60;;;3.10;83.30;;;;;;5063100;28;20076;-71
2021/03/18 02:52:10;;;;;;;7.78;1.63;;;3.10;83.50;;;;;;5062840;28;20044;-72
2021/03/18 02:54:36;;;;;;;14.95;2.08;;;3.10;83.60;;;;;;5043664;28;20069;-72
2021/03/18 02:57:02;;;;;;;8.07;1.02;;;3.10;83.70;;;;;;5058215;28;20242;-72
2021/03/18 02:59:33;;;;;;;10.77;1.50;;;3.10;83.90;;;;;;5063083;28;20072;-72
2021/03/18 03:02:00;;;;;;;11.90;1.42;;;3.00;84.00;;;;;;5062875;28;20013;-72
2021/03/18 03:04:26;;;;;;;13.02;1.80;;;3.10;84.10;;;;;;5062103;28;20017;-72
2021/03/18 03:06:52;;;;;;;9.13;1.50;;;3.10;84.20;;;;;;5062058;28;20039;-72
2021/03/18 03:09:18;;;;;;;7.05;1.30;;;3.10;84.10;;;;;;5065767;28;20012;-72
2021/03/18 03:11:43;;;;;;;5.47;1.27;;;3.10;84.10;;;;;;5065978;28;20017;-71
2021/03/18 03:14:09;;;;;;;7.60;1.42;;;3.10;84.20;;;;;;5065291;28;20020;-71
2021/03/18 03:16:35;;;;;;;10.73;1.33;;;3.20;83.80;;;;;;5065032;28;20005;-71
2021/03/18 03:19:00;;;;;;;7.65;1.52;;;3.10;83.60;;;;;;5047715;28;20092;-72
2021/03/18 03:21:26;;;;;;;10.07;1.30;;;3.10;83.70;;;;;;5064139;28;20005;-71
2021/03/18 03:23:52;;;;;;;16.92;1.50;;;3.20;83.70;;;;;;5062353;28;20009;-72
2021/03/18 03:26:18;;;;;;;8.13;1.48;;;3.10;83.60;;;;;;5045564;28;20013;-72
2021/03/18 03:28:45;;;;;;;7.22;1.25;;;3.00;84.10;;;;;;5062869;28;20043;-72
2021/03/18 03:31:10;;;;;;;6.75;1.55;;;3.10;84.30;;;;;;5063588;28;20371;-71
2021/03/18 03:33:36;;;;;;;8.85;1.40;;;3.00;85.00;;;;;;5047095;28;20056;-72
2021/03/18 03:36:03;;;;;;;6.60;1.58;;;3.10;84.30;;;;;;5063933;28;20070;-71
2021/03/18 03:38:28;;;;;;;10.25;1.38;;;3.00;84.20;;;;;;5063908;28;20097;-71
2021/03/18 03:40:54;;;;;;;6.78;1.17;;;3.00;84.30;;;;;;5064319;28;20009;-71
2021/03/18 03:43:20;;;;;;;6.72;1.30;;;3.00;84.40;;;;;;5064359;28;20013;-71
2021/03/18 03:45:47;;;;;;;6.70;1.20;;;3.00;84.50;;;;;;5064004;28;20013;-72
2021/03/18 03:48:12;;;;;;;10.73;1.38;;;3.00;85.00;;;;;;5064337;28;20337;-71
2021/03/18 03:50:38;;;;;;;7.93;1.20;;;3.00;85.10;;;;;;5066120;28;20009;-71
2021/03/18 03:53:22;;;;;;;11.63;1.50;;;3.00;85.50;;;;;;5065092;28;20029;-71
2021/03/18 03:56:18;;;;;;;10.15;1.40;;;3.00;85.20;;;;;;5064127;28;20084;-72
2021/03/18 03:58:53;;;;;;;7.93;1.48;;;3.10;85.20;;;;;;5064348;28;20052;-71
2021/03/18 04:01:26;;;;;;;7.07;1.52;;;2.90;85.00;;;;;;5044160;28;20207;-72
2021/03/18 04:03:53;;;;;;;5.70;1.20;;;2.80;85.40;;;;;;5027682;28;20167;-72
2021/03/18 04:06:19;;;;;;;5.70;1.48;;;2.70;85.60;;;;;;5053119;28;20120;-72
2021/03/18 04:08:45;;;;;;;8.73;1.58;;;2.70;85.70;;;;;;5064167;28;20013;-71
2021/03/18 04:11:10;;;;;;;9.13;1.30;;;2.70;85.80;;;;;;5063746;28;20013;-72
2021/03/18 04:13:36;;;;;;;8.50;1.42;;;2.70;85.80;;;;;;5047745;28;20031;-72
2021/03/18 04:16:02;;;;;;;11.38;2.08;;;2.60;86.00;;;;;;5064320;28;20306;-72
2021/03/18 04:18:31;;;;;;;8.65;1.75;;;2.50;85.80;;;;;;5048610;28;20274;-72
2021/03/18 04:20:57;;;;;;;9.32;1.48;;;2.40;86.00;;;;;;5048394;28;20008;-72
2021/03/18 04:23:22;;;;;;;7.25;1.75;;;2.40;86.90;;;;;;5053465;28;20021;-72
2021/03/18 04:25:48;;;;;;;14.60;1.65;;;2.50;86.60;;;;;;5046004;28;20072;-72
2021/03/18 04:28:13;;;;;;;15.35;1.88;;;2.50;86.60;;;;;;5041943;28;20248;-72
2021/03/18 04:30:39;;;;;;;8.23;1.65;;;2.40;86.00;;;;;;5057089;28;20017;-72
2021/03/18 04:33:05;;;;;;;9.95;1.92;;;2.30;86.50;;;;;;5040713;28;20018;-72
2021/03/18 04:35:31;;;;;;;7.35;1.50;;;2.20;86.60;;;;;;5038114;28;20016;-72
2021/03/18 04:37:58;;;;;;;10.73;1.85;;;2.10;86.70;;;;;;5071989;28;20005;-71
2021/03/18 04:40:24;;;;;;;7.57;1.38;;;2.10;87.10;;;;;;5043039;28;20079;-72
2021/03/18 04:42:49;;;;;;;9.75;2.40;;;2.00;87.30;;;;;;5058987;28;20018;-72
2021/03/18 04:45:18;;;;;;;10.02;1.63;;;1.90;87.40;;;;;;5069707;28;20024;-73
2021/03/18 04:47:44;;;;;;;8.55;1.83;;;1.80;87.60;;;;;;5070377;28;20070;-71
2021/03/18 04:50:13;;;;;;;12.50;1.83;;;1.80;88.00;;;;;;5069420;28;20021;-72
2021/03/18 04:52:39;;;;;;;8.38;2.03;;;1.70;88.10;;;;;;5038357;28;20057;-72
2021/03/18 04:55:09;;;;;;;10.45;1.83;;;1.80;88.30;;;;;;5063280;28;20016;-72
2021/03/18 04:57:35;;;;;;;14.45;1.90;;;1.70;88.30;;;;;;5069729;28;20012;-72
2021/03/18 05:00:01;;;;;;;25.58;3.20;;;1.70;88.60;;;;;;5070330;28;20250;-72
2021/03/18 05:02:26;;;;;;;22.10;2.67;;;1.70;88.50;;;;;;5075377;28;20267;-72
2021/03/18 05:04:52;;;;;;;18.08;2.22;;;1.60;88.60;;;;;;5049588;28;20040;-71
2021/03/18 05:07:18;;;;;;;12.80;2.00;;;1.70;88.80;;;;;;5055631;28;20063;-71
2021/03/18 05:09:43;;;;;;;15.15;2.00;;;1.70;88.70;;;;;;5051532;28;20067;-72
2021/03/18 05:12:09;;;;;;;9.27;1.65;;;1.70;88.70;;;;;;5068956;28;20079;-71
2021/03/18 05:14:35;;;;;;;8.93;1.73;;;1.60;88.30;;;;;;5067485;28;20011;-72
2021/03/18 05:17:01;;;;;;;12.57;2.28;;;1.60;89.20;;;;;;5050309;28;20025;-72
2021/03/18 05:19:26;;;;;;;4.97;1.73;;;1.60;89.10;;;;;;5046803;28;20364;-72
2021/03/18 05:21:52;;;;;;;17.23;2.53;;;1.50;89.10;;;;;;5045195;28;20012;-72
2021/03/18 05:24:18;;;;;;;7.78;2.03;;;1.60;89.40;;;;;;5050821;28;20013;-73
2021/03/18 05:26:44;;;;;;;13.10;2.15;;;1.50;88.90;;;;;;5068212;28;20032;-72
2021/03/18 05:29:10;;;;;;;15.30;2.20;;;1.50;89.30;;;;;;5067129;28;20070;-72
2021/03/18 05:31:36;;;;;;;11.45;2.30;;;1.50;89.20;;;;;;5066450;28;20379;-72
2021/03/18 05:34:01;;;;;;;9.82;1.80;;;1.40;89.30;;;;;;5066158;28;20017;-72
2021/03/18 05:36:27;;;;;;;12.77;2.30;;;1.50;89.60;;;;;;5066748;28;20055;-72
2021/03/18 05:38:53;;;;;;;16.48;2.00;;;1.40;89.20;;;;;;5068147;28;20009;-72
2021/03/18 05:41:19;;;;;;;14.45;3.53;;;1.50;89.80;;;;;;5066389;28;20013;-72
2021/03/18 05:43:45;;;;;;;16.52;4.30;;;1.50;89.60;;;;;;5064649;28;20244;-73
2021/03/18 05:46:11;;;;;;;13.50;3.40;;;1.50;89.40;;;;;;5065989;28;20014;-72
2021/03/18 05:48:37;;;;;;;12.75;2.53;;;1.50;89.20;;;;;;5051041;28;20194;-72
2021/03/18 05:51:03;;;;;;;8.27;2.75;;;1.50;89.30;;;;;;5052223;28;20016;-72
2021/03/18 05:53:29;;;;;;;16.85;2.58;;;1.40;89.60;;;;;;5073488;28;20017;-71
2021/03/18 05:55:55;;;;;;;16.23;2.47;;;1.50;90.00;;;;;;5067289;28;20032;-71
2021/03/18 05:58:24;;;;;;;9.68;2.00;;;1.50;89.70;;;;;;5067996;28;20021;-71
2021/03/18 06:00:51;;;;;;;11.82;2.03;;;1.50;89.60;;;;;;5067050;28;20009;-72
2021/03/18 06:03:17;;;;;;;16.00;2.58;;;1.50;89.80;;;;;;5074966;28;20036;-72
2021/03/18 06:05:43;;;;;;;13.45;2.35;;;1.60;89.80;;;;;;5078919;28;20016;-72
2021/03/18 06:08:09;;;;;;;12.75;2.40;;;1.60;90.00;;;;;;5078530;28;20068;-72
2021/03/18 06:10:34;;;;;;;19.60;3.28;;;1.60;90.10;;;;;;5061814;28;20051;-72
2021/03/18 06:13:00;;;;;;;8.07;2.22;;;1.70;90.00;;;;;;5077991;28;20037;-73
2021/03/18 06:15:26;;;;;;;14.90;2.78;;;1.80;89.70;;;;;;5074299;28;20056;-72
2021/03/18 06:17:53;;;;;;;21.98;2.58;;;1.90;89.70;;;;;;5066893;28;19993;-72
2021/03/18 06:20:24;;;;;;;8.02;2.10;;;2.00;89.40;;;;;;5066091;28;20012;-71
2021/03/18 06:22:50;;;;;;;11.60;2.40;;;2.10;89.40;;;;;;5049253;28;20020;-71
2021/03/18 06:25:27;;;;;;;9.40;2.60;;;2.10;89.10;;;;;;5061403;28;20036;-72
2021/03/18 06:28:32;;;;;;;12.00;2.42;;;2.10;89.40;;;;;;5039417;28;20040;-72
2021/03/18 06:31:08;;;;;;;15.32;2.40;;;2.20;89.80;;;;;;5041152;28;20023;-72
2021/03/18 06:33:35;;;;;;;12.60;2.35;;;2.30;89.50;;;;;;5036445;28;20081;-71
2021/03/18 06:36:01;;;;;;;8.27;2.35;;;2.40;89.40;;;;;;5053426;28;20025;-72
2021/03/18 06:38:32;;;;;;;8.73;2.20;;;2.40;89.30;;;;;;5029045;28;20023;-72
2021/03/18 06:40:59;;;;;;;6.53;2.38;;;2.50;88.90;;;;;;5026280;28;20084;-71
2021/03/18 06:43:35;;;;;;;7.75;2.60;;;2.50;88.80;;;;;;5001864;28;20052;-72
2021/03/18 06:46:13;;;;;;;12.32;2.75;;;2.50;88.70;;;;;;5010191;28;20025;-71
2021/03/18 06:48:38;;;;;;;9.50;2.40;;;2.50;88.70;;;;;;5032944;28;20076;-72
2021/03/18 06:51:14;;;;;;;10.70;2.30;;;2.60;88.70;;;;;;4992495;28;20025;-72
2021/03/18 06:53:40;;;;;;;12.13;2.30;;;2.60;88.40;;;;;;5024991;28;20021;-72
2021/03/18 06:56:21;;;;;;;15.15;2.25;;;2.70;87.80;;;;;;5002832;28;20200;-72
2021/03/18 06:58:46;;;;;;;5.20;1.58;;;2.90;87.50;;;;;;5014855;28;20045;-72
2021/03/18 07:01:12;;;;;;;11.90;2.72;;;3.00;85.70;;;;;;5032514;28;20032;-72
2021/03/18 07:03:39;;;;;;;9.48;2.08;;;3.00;84.60;;;;;;5046557;28;20013;-72
2021/03/18 07:06:06;;;;;;;8.68;1.80;;;3.00;84.30;;;;;;5041886;28;20005;-72
2021/03/18 07:08:35;;;;;;;15.55;1.90;;;3.10;84.20;;;;;;5059472;28;20025;-72
2021/03/18 07:11:14;;;;;;;8.85;1.85;;;3.20;81.40;;;;;;5056497;28;20020;-72
2021/03/18 07:13:42;;;;;;;4.78;1.10;;;3.30;80.50;;;;;;5024467;28;20028;-72
2021/03/18 07:16:08;;;;;;;5.00;1.30;;;3.50;77.50;;;;;;5057694;28;20033;-72
2021/03/18 07:18:35;;;;;;;8.93;1.60;;;3.60;77.80;;;;;;5054208;28;20032;-72
2021/03/18 07:21:01;;;;;;;6.57;1.40;;;3.80;76.80;;;;;;5017104;28;20013;-72
2021/03/18 07:23:37;;;;;;;8.75;1.50;;;4.10;76.60;;;;;;5042514;28;20027;-72
2021/03/18 07:26:23;;;;;;;8.23;1.60;;;4.30;74.60;;;;;;5047154;28;20031;-72
2021/03/18 07:28:53;;;;;;;11.40;1.58;;;5.30;74.80;;;;;;5044456;28;20364;-72
2021/03/18 07:31:21;;;;;;;11.60;1.85;;;6.30;71.40;;;;;;5028246;28;20255;-72
2021/03/18 07:33:48;;;;;;;14.23;2.42;;;7.00;69.40;;;;;;5008875;28;20039;-72
2021/03/18 07:36:14;;;;;;;8.93;1.80;;;6.80;66.70;;;;;;5028755;28;20023;-73
2021/03/18 07:38:40;;;;;;;6.90;1.55;;;6.20;68.20;;;;;;5008133;28;20021;-73
2021/03/18 07:41:12;;;;;;;8.15;1.60;;;6.30;70.60;;;;;;5036332;28;20065;-73
2021/03/18 07:43:38;;;;;;;7.68;1.73;;;6.20;68.30;;;;;;5033709;28;20048;-73
2021/03/18 07:46:03;;;;;;;5.13;1.30;;;6.30;68.90;;;;;;5017256;28;20284;-75
2021/03/18 07:48:29;;;;;;;8.82;1.50;;;6.70;65.50;;;;;;5013428;28;20017;-73
2021/03/18 07:50:54;;;;;;;8.45;1.73;;;7.00;65.80;;;;;;5041945;28;20044;-72
2021/03/18 07:53:20;;;;;;;2.67;0.60;;;7.90;63.70;;;;;;5015221;28;20120;-79
2021/03/18 07:55:49;;;;;;;2.38;0.73;;;8.90;60.10;;;;;;5056666;28;20029;-79
2021/03/18 07:58:39;;;;;;;3.65;0.80;;;10.40;55.60;;;;;;5067211;28;20029;-78
2021/03/18 08:01:06;;;;;;;3.53;0.82;;;11.10;52.20;;;;;;5042826;28;20021;-78
2021/03/18 08:03:32;;;;;;;3.42;0.60;;;11.70;50.80;;;;;;5016956;28;21152;-77
2021/03/18 08:05:58;;;;;;;3.67;0.90;;;12.30;48.30;;;;;;5028713;28;20017;-77
2021/03/18 08:08:33;;;;;;;2.78;0.70;;;12.70;47.10;;;;;;5049507;28;20021;-78
2021/03/18 08:11:10;;;;;;;1.52;0.70;;;13.00;45.60;;;;;;4985696;28;21078;-74
2021/03/18 08:13:37;;;;;;;3.17;0.60;;;11.60;45.20;;;;;;5010669;28;20476;-74
2021/03/18 08:16:04;;;;;;;3.00;0.77;;;9.30;51.00;;;;;;4990789;28;20017;-73
2021/03/18 08:18:31;;;;;;;3.42;0.75;;;9.20;54.10;;;;;;5010639;28;20079;-73
2021/03/18 08:21:01;;;;;;;0.68;0.40;;;9.40;53.90;;;;;;5004125;28;20226;-73
2021/03/18 08:23:27;;;;;;;2.30;0.47;;;10.00;53.30;;;;;;5009255;28;20016;-73
2021/03/18 08:25:56;;;;;;;2.10;0.80;;;10.90;52.20;;;;;;5041131;28;20017;-75
2021/03/18 08:28:55;;;;;;;1.75;0.60;;;11.30;50.60;;;;;;5028651;28;20018;-74
2021/03/18 08:31:22;;;;;;;2.13;0.70;;;10.70;51.30;;;;;;5036617;28;20012;-74
2021/03/18 08:33:52;;;;;;;3.03;1.00;;;10.80;52.20;;;;;;5028189;28;20117;-73
2021/03/18 08:36:33;;;;;;;2.00;0.80;;;11.40;51.60;;;;;;5035836;28;20104;-76
2021/03/18 08:39:03;;;;;;;1.08;0.50;;;11.40;50.90;;;;;;5030034;28;20075;-76
2021/03/18 08:41:32;;;;;;;3.50;0.93;;;11.70;50.80;;;;;;5033920;28;20039;-75
2021/03/18 08:44:20;;;;;;;2.60;0.82;;;9.90;52.00;;;;;;4994318;28;20457;-75
2021/03/18 08:47:03;;;;;;;1.60;0.60;;;8.80;54.50;;;;;;5004483;28;20150;-75
2021/03/18 08:49:33;;;;;;;1.35;0.65;;;9.10;54.90;;;;;;4998377;28;20025;-74
2021/03/18 08:52:18;;;;;;;1.25;0.63;;;8.90;55.80;;;;;;4994317;28;20029;-75
2021/03/18 08:54:49;;;;;;;2.35;0.80;;;8.20;56.60;;;;;;4991610;28;20381;-74
2021/03/18 08:57:21;;;;;;;1.98;0.73;;;7.30;59.00;;;;;;4998108;28;20040;-74
2021/03/18 08:59:47;;;;;;;;;;;6.70;60.00;;;;;;5010491;28;20025;-74
2021/03/18 09:02:13;;;;;;;4.00;1.00;;;8.00;60.30;;;;;;5008080;28;19908;-73
2021/03/18 09:04:40;;;;;;;1.77;0.93;;;8.60;56.90;;;;;;5010901;28;20438;-73
2021/03/18 09:07:07;;;;;;;3.17;0.90;;;9.10;56.00;;;;;;4999680;28;20044;-74
2021/03/18 09:09:32;;;;;;;2.47;0.82;;;10.10;54.60;;;;;;4989280;28;20029;-73
2021/03/18 09:11:59;;;;;;;1.13;0.60;;;9.80;54.00;;;;;;5048063;28;20037;-73
2021/03/18 09:14:25;;;;;;;2.25;0.73;;;7.70;56.10;;;;;;4994666;28;20020;-72
2021/03/18 09:16:51;;;;;;;4.28;0.80;;;7.10;59.30;;;;;;5007274;28;20020;-73
2021/03/18 09:19:17;;;;;;;2.22;0.82;;;7.40;60.50;;;;;;5001234;28;20428;-72
2021/03/18 09:21:45;;;;;;;4.03;0.90;;;8.00;59.00;;;;;;5000549;28;20044;-72
2021/03/18 09:24:11;;;;;;;2.25;0.73;;;7.70;59.10;;;;;;5003339;28;20322;-75
2021/03/18 09:26:40;;;;;;;1.75;0.60;;;9.00;58.80;;;;;;5001284;28;21227;-76
2021/03/18 09:29:06;;;;;;;2.13;0.80;;;10.60;54.60;;;;;;5023714;28;20021;-76
2021/03/18 09:31:31;;;;;;;4.07;1.10;;;9.70;53.30;;;;;;5006782;28;20024;-78
2021/03/18 09:33:58;;;;;;;4.32;0.90;;;8.90;54.00;;;;;;5029829;28;20040;-76
2021/03/18 09:36:26;;;;;;;3.47;0.80;;;8.50;55.00;;;;;;5019333;28;20077;-77
2021/03/18 09:39:05;;;;;;;2.97;0.63;;;9.00;55.40;;;;;;5009149;28;20020;-75
2021/03/18 09:41:33;;;;;;;2.47;0.60;;;10.00;53.90;;;;;;5021573;28;22278;-77
2021/03/18 09:44:09;;;;;;;3.60;0.88;;;10.10;52.80;;;;;;5013705;28;20024;-75
2021/03/18 09:46:35;;;;;;;3.70;1.20;;;10.40;52.80;;;;;;5011978;28;20013;-77
2021/03/18 09:49:01;;;;;;;5.15;0.75;;;10.80;52.10;;;;;;5025017;28;21060;-76
2021/03/18 09:51:27;;;;;;;2.47;0.73;;;11.10;51.20;;;;;;5008220;28;20025;-77
2021/03/18 09:54:00;;;;;;;1.73;0.70;;;11.60;49.40;;;;;;4998147;28;21015;-74
2021/03/18 09:56:26;;;;;;;2.42;0.80;;;11.20;48.30;;;;;;5018278;28;20013;-74
2021/03/18 09:58:53;;;;;;;0.82;0.50;;;11.90;48.50;;;;;;5022738;28;20307;-79
2021/03/18 10:01:23;;;;;;;1.25;0.70;;;11.50;46.30;;;;;;4968540;28;21223;-75
2021/03/18 10:03:58;;;;;;;0.47;0.38;;;11.60;46.50;;;;;;5002451;28;20028;-77
2021/03/18 10:06:45;;;;;;;0.50;0.40;;;12.10;45.00;;;;;;5032571;28;20214;-77
2021/03/18 10:09:20;;;;;;;2.47;0.40;;;11.50;44.80;;;;;;5017538;28;20021;-76
2021/03/18 10:11:56;;;;;;;0.52;0.40;;;11.30;45.40;;;;;;5026852;28;20293;-79
2021/03/18 10:14:32;;;;;;;1.60;0.57;;;11.70;44.20;;;;;;5003761;28;20092;-77
2021/03/18 10:17:03;;;;;;;2.22;0.60;;;11.90;41.90;;;;;;5001233;28;20471;-74
2021/03/18 10:19:31;;;;;;;1.15;0.57;;;12.20;43.10;;;;;;5066208;28;20020;-79
2021/03/18 10:21:59;;;;;;;0.82;0.43;;;12.50;40.20;;;;;;5040059;28;20110;-81
2021/03/18 10:24:25;;;;;;;1.20;0.30;;;12.90;39.40;;;;;;5029151;28;20013;-79
2021/03/18 10:26:51;;;;;;;1.90;0.60;;;13.40;37.90;;;;;;5016688;28;20013;-80
2021/03/18 10:29:17;;;;;;;0.80;0.40;;;12.90;37.80;;;;;;5031502;28;20080;-80
2021/03/18 10:31:42;;;;;;;0.57;0.45;;;12.70;38.30;;;;;;5001264;28;20071;-75
2021/03/18 10:34:22;;;;;;;2.10;0.63;;;12.60;39.90;;;;;;5020127;28;20270;-77
2021/03/18 10:36:49;;;;;;;1.63;0.60;;;13.20;38.00;;;;;;5008930;28;20017;-76
2021/03/18 10:39:14;;;;;;;2.78;0.73;;;12.70;39.30;;;;;;5019348;28;20039;-76
2021/03/18 10:41:53;;;;;;;1.05;0.55;;;12.70;38.50;;;;;;5014673;28;20025;-77
2021/03/18 10:44:20;;;;;;;1.75;0.77;;;12.80;38.60;;;;;;5009086;28;20017;-78
2021/03/18 10:46:46;;;;;;;1.80;0.75;;;13.30;39.10;;;;;;4997757;28;20404;-78
2021/03/18 10:49:13;;;;;;;1.27;0.70;;;13.40;37.90;;;;;;4995745;28;20016;-77
2021/03/18 10:51:46;;;;;;;0.47;0.40;;;13.80;39.00;;;;;;5028184;28;20009;-76
2021/03/18 10:54:22;;;;;;;1.15;0.60;;;14.50;35.70;;;;;;5016917;28;20319;-78
2021/03/18 10:56:51;;;;;;;1.73;0.73;;;13.50;35.80;;;;;;5021949;28;20047;-78
2021/03/18 10:59:18;;;;;;;1.58;0.60;;;11.90;36.90;;;;;;4992343;28;20087;-79
2021/03/18 11:01:43;;;;;;;1.25;0.47;;;11.80;38.70;;;;;;5004341;28;20250;-79
2021/03/18 11:04:10;;;;;;;1.45;0.50;;;11.80;38.00;;;;;;4991663;28;20282;-74
2021/03/18 11:07:07;;;;;;;1.00;0.60;;;10.30;40.00;;;;;;4990418;28;20667;-74
2021/03/18 11:09:33;;;;;;;0.88;0.40;;;9.10;42.00;;;;;;4972130;28;20735;-72
2021/03/18 11:11:59;;;;;;;0.60;0.40;;;8.80;43.30;;;;;;4967147;28;20013;-73
2021/03/18 11:14:27;;;;;;;1.98;0.70;;;8.30;44.50;;;;;;4986962;28;20935;-74
2021/03/18 11:17:07;;;;;;;0.70;0.60;;;8.10;45.90;;;;;;5012120;28;20016;-71
2021/03/18 11:19:32;;;;;;;1.50;0.52;;;8.30;45.60;;;;;;5018938;28;20035;-72
2021/03/18 11:22:00;;;;;;;0.55;0.40;;;8.10;44.00;;;;;;5007683;28;20025;-71
2021/03/18 11:24:26;;;;;;;0.80;0.45;;;8.00;44.60;;;;;;5041336;28;20035;-72
2021/03/18 11:26:52;;;;;;;1.05;0.50;;;7.70;43.80;;;;;;5019266;28;20666;-74
2021/03/18 11:29:19;;;;;;;1.42;0.40;;;7.50;44.10;;;;;;5039812;28;20032;-73
2021/03/18 11:31:46;;;;;;;0.90;0.40;;;7.60;44.70;;;;;;5029788;28;20410;-73
2021/03/18 11:34:22;;;;;;;1.73;0.40;;;7.80;44.70;;;;;;5035460;28;20739;-73
2021/03/18 11:36:53;;;;;;;0.75;0.47;;;7.90;44.30;;;;;;5008024;28;20022;-76
2021/03/18 11:39:19;;;;;;;1.10;0.60;;;7.80;45.70;;;;;;5018190;28;20070;-71
2021/03/18 11:41:45;;;;;;;0.95;0.40;;;7.70;45.20;;;;;;5032959;28;20561;-72
2021/03/18 11:44:13;;;;;;;1.00;0.60;;;7.90;45.00;;;;;;5016196;28;20020;-72
2021/03/18 11:46:39;;;;;;;0.85;0.35;;;8.10;44.00;;;;;;5037384;28;20079;-72
2021/03/18 11:49:04;;;;;;;0.43;0.40;;;8.20;43.90;;;;;;5018544;28;20118;-74
2021/03/18 11:51:30;;;;;;;1.75;0.43;;;8.30;43.40;;;;;;5025792;28;20214;-71
2021/03/18 11:53:56;;;;;;;0.30;0.20;;;8.10;42.70;;;;;;5036057;28;20027;-72
2021/03/18 11:56:22;;;;;;;0.30;0.20;;;7.90;43.20;;;;;;5046473;28;20633;-73
2021/03/18 11:58:48;;;;;;;1.20;0.40;;;7.70;43.40;;;;;;5068522;28;20130;-74
2021/03/18 12:01:14;;;;;;;1.35;0.40;;;7.70;44.20;;;;;;5048854;28;20340;-73
2021/03/18 12:03:40;;;;;;;1.05;0.70;;;7.80;44.50;;;;;;5055968;28;20182;-74
2021/03/18 12:06:06;;;;;;;1.83;0.60;;;8.10;44.40;;;;;;5042467;28;20895;-74
2021/03/18 12:08:32;;;;;;;1.45;0.52;;;8.30;43.90;;;;;;5018410;28;20732;-71
2021/03/18 12:10:57;;;;;;;4.43;0.50;;;8.10;43.90;;;;;;5027017;28;20016;-73
2021/03/18 12:13:23;;;;;;;0.55;0.38;;;8.00;43.60;;;;;;5070390;28;20263;-73
2021/03/18 12:15:49;;;;;;;0.32;0.20;;;8.10;43.70;;;;;;5066936;28;20186;-72
2021/03/18 12:18:15;;;;;;;1.52;0.65;;;8.30;43.70;;;;;;5039605;28;20016;-72
2021/03/18 12:20:40;;;;;;;0.75;0.38;;;8.40;43.20;;;;;;5057176;28;20180;-72
2021/03/18 12:23:06;;;;;;;1.10;0.50;;;8.30;45.80;;;;;;5059707;28;20723;-73
2021/03/18 12:25:31;;;;;;;1.38;0.50;;;8.00;52.00;;;;;;5025445;28;20016;-72
2021/03/18 12:27:57;;;;;;;1.38;0.60;;;8.00;52.50;;;;;;5050844;28;20031;-72
2021/03/18 12:30:23;;;;;;;1.90;0.60;;;7.80;53.30;;;;;;5063559;28;20031;-71
2021/03/18 12:32:50;;;;;;;2.30;0.50;;;7.90;54.50;;;;;;5060437;28;20396;-74
2021/03/18 12:35:16;;;;;;;1.35;0.63;;;7.80;55.60;;;;;;5055289;28;20051;-75
2021/03/18 12:37:43;;;;;;;1.70;0.50;;;7.80;56.20;;;;;;5074974;28;20093;-75
2021/03/18 12:40:09;;;;;;;0.60;0.38;;;7.70;56.30;;;;;;5074192;28;20097;-72
2021/03/18 12:42:35;;;;;;;0.68;0.45;;;7.70;57.30;;;;;;5061419;28;20012;-72
2021/03/18 12:45:01;;;;;;;0.63;0.45;;;7.90;57.20;;;;;;5076048;28;20309;-73
2021/03/18 12:47:27;;;;;;;1.95;0.60;;;7.80;57.80;;;;;;5073545;28;20024;-74
2021/03/18 12:49:52;;;;;;;2.72;0.85;;;7.90;57.70;;;;;;5079377;28;20012;-73
2021/03/18 12:52:18;;;;;;;1.92;0.60;;;7.70;58.20;;;;;;5056527;28;20230;-74
2021/03/18 12:54:44;;;;;;;2.33;0.73;;;7.70;57.90;;;;;;5080560;28;23698;-72
2021/03/18 12:57:10;;;;;;;2.17;0.70;;;7.60;58.60;;;;;;5084702;28;20028;-72
2021/03/18 12:59:36;;;;;;;1.45;0.47;;;7.40;59.70;;;;;;5084082;28;20023;-74